sensor_id;sensor_type;location;lat;lon;timestamp;temperature;humidity
37242;DHT22;23135;51.078;12.108;2024-01-25T00:00:25;8.20;99.90
37242;DHT22;23135;51.078;12.108;2024-01-25T00:02:50;8.20;99.90
37242;DHT22;23135;51.078;12.108;2024-01-25T00:05:16;8.20;99.90
37242;DHT22;23135;51.078;12.108;2024-01-25T00:07:48;8.30;99.90
37242;DHT22;23135;51.078;12.108;2024-01-25T00:10:16;8.20;99.90
37242;DHT22;23135;51.078;12.108;2024-01-25T00:12:42;8.20;99.90
37242;DHT22;23135;51.078;12.108;2024-01-25T00:15:09;8.20;99.90
37242;DHT22;23135;51.078;12.108;2024-01-25T00:17:34;8.10;99.90
37242;DHT22;23135;51.078;12.108;2024-01-25T00:20:00;8.10;99.90
37242;DHT22;23135;51.078;12.108;2024-01-25T00:22:25;8.10;99.90
37242;DHT22;23135;51.078;12.108;2024-01-25T00:24:51;8.20;99.90
37242;DHT22;23135;51.078;12.108;2024-01-25T00:27:17;8.20;99.90
37242;DHT22;23135;51.078;12.108;2024-01-25T00:29:42;8.10;99.90
37242;DHT22;23135;51.078;12.108;2024-01-25T00:32:09;8.10;99.90
37242;DHT22;23135;51.078;12.108;2024-01-25T00:34:34;8.10;99.90
37242;DHT22;23135;51.078;12.108;2024-01-25T00:37:00;8.10;99.90
37242;DHT22;23135;51.078;12.108;2024-01-25T00:39:26;8.10;99.90
37242;DHT22;23135;51.078;12.108;2024-01-25T00:41:52;8.00;99.90
37242;DHT22;23135;51.078;12.108;2024-01-25T00:44:22;8.00;99.90
37242;DHT22;23135;51.078;12.108;2024-01-25T00:46:48;8.00;99.90
37242;DHT22;23135;51.078;12.108;2024-01-25T00:49:14;8.00;99.90
37242;DHT22;23135;51.078;12.108;2024-01-25T00:51:44;7.90;99.90
37242;DHT22;23135;51.078;12.108;2024-01-25T00:54:12;7.90;99.90
37242;DHT22;23135;51.078;12.108;2024-01-25T00:56:38;7.90;99.90
37242;DHT22;23135;51.078;12.108;2024-01-25T00:59:04;7.90;99.90
37242;DHT22;23135;51.078;12.108;2024-01-25T01:01:29;7.80;99.90
37242;DHT22;23135;51.078;12.108;2024-01-25T01:03:55;7.80;99.90
37242;DHT22;23135;51.078;12.108;2024-01-25T01:06:23;7.70;99.90
37242;DHT22;23135;51.078;12.108;2024-01-25T01:08:49;7.70;99.90
37242;DHT22;23135;51.078;12.108;2024-01-25T01:11:15;7.70;99.90
37242;DHT22;23135;51.078;12.108;2024-01-25T01:13:40;7.70;99.90
37242;DHT22;23135;51.078;12.108;2024-01-25T01:16:06;7.70;99.90
37242;DHT22;23135;51.078;12.108;2024-01-25T01:18:32;7.70;99.90
37242;DHT22;23135;51.078;12.108;2024-01-25T01:20:58;7.60;99.90
37242;DHT22;23135;51.078;12.108;2024-01-25T01:23:23;7.50;99.90
37242;DHT22;23135;51.078;12.108;2024-01-25T01:25:49;7.50;99.90
37242;DHT22;23135;51.078;12.108;2024-01-25T01:28:14;7.50;99.90
37242;DHT22;23135;51.078;12.108;2024-01-25T01:30:40;7.50;99.90
37242;DHT22;23135;51.078;12.108;2024-01-25T01:33:08;7.50;99.90
37242;DHT22;23135;51.078;12.108;2024-01-25T01:35:34;7.60;99.90
37242;DHT22;23135;51.078;12.108;2024-01-25T01:37:59;7.60;99.90
37242;DHT22;23135;51.078;12.108;2024-01-25T01:40:25;7.60;99.90
37242;DHT22;23135;51.078;12.108;2024-01-25T01:42:50;7.60;99.90
37242;DHT22;23135;51.078;12.108;2024-01-25T01:45:16;7.70;99.90
37242;DHT22;23135;51.078;12.108;2024-01-25T01:47:42;7.60;99.90
37242;DHT22;23135;51.078;12.108;2024-01-25T01:50:09;7.60;99.90
37242;DHT22;23135;51.078;12.108;2024-01-25T01:52:35;7.60;99.90
37242;DHT22;23135;51.078;12.108;2024-01-25T01:55:01;7.70;99.90
37242;DHT22;23135;51.078;12.108;2024-01-25T01:57:28;7.70;99.90
37242;DHT22;23135;51.078;12.108;2024-01-25T01:59:53;7.70;99.90
37242;DHT22;23135;51.078;12.108;2024-01-25T02:02:19;7.70;99.90
37242;DHT22;23135;51.078;12.108;2024-01-25T02:04:45;7.70;99.90
37242;DHT22;23135;51.078;12.108;2024-01-25T02:07:11;7.70;99.90
37242;DHT22;23135;51.078;12.108;2024-01-25T02:09:37;7.70;99.90
37242;DHT22;23135;51.078;12.108;2024-01-25T02:12:03;7.70;99.90
37242;DHT22;23135;51.078;12.108;2024-01-25T02:14:30;7.60;99.90
37242;DHT22;23135;51.078;12.108;2024-01-25T02:16:55;7.50;99.90
37242;DHT22;23135;51.078;12.108;2024-01-25T02:19:21;7.40;99.90
37242;DHT22;23135;51.078;12.108;2024-01-25T02:21:47;7.40;99.90
37242;DHT22;23135;51.078;12.108;2024-01-25T02:24:13;7.30;99.90
37242;DHT22;23135;51.078;12.108;2024-01-25T02:26:39;7.30;99.90
37242;DHT22;23135;51.078;12.108;2024-01-25T02:29:05;7.30;99.90
37242;DHT22;23135;51.078;12.108;2024-01-25T02:31:32;7.30;99.90
37242;DHT22;23135;51.078;12.108;2024-01-25T02:33:58;7.40;99.90
37242;DHT22;23135;51.078;12.108;2024-01-25T02:36:23;7.40;99.90
37242;DHT22;23135;51.078;12.108;2024-01-25T02:38:49;7.40;99.90
37242;DHT22;23135;51.078;12.108;2024-01-25T02:41:15;7.40;99.90
37242;DHT22;23135;51.078;12.108;2024-01-25T02:43:40;7.40;99.90
37242;DHT22;23135;51.078;12.108;2024-01-25T02:46:07;7.40;99.90
37242;DHT22;23135;51.078;12.108;2024-01-25T02:48:33;7.30;99.90
37242;DHT22;23135;51.078;12.108;2024-01-25T02:50:58;7.30;99.90
37242;DHT22;23135;51.078;12.108;2024-01-25T02:53:24;7.30;99.90
37242;DHT22;23135;51.078;12.108;2024-01-25T02:55:49;7.30;99.90
37242;DHT22;23135;51.078;12.108;2024-01-25T02:58:15;7.30;99.90
37242;DHT22;23135;51.078;12.108;2024-01-25T03:00:40;7.30;99.90
37242;DHT22;23135;51.078;12.108;2024-01-25T03:03:06;7.30;99.90
37242;DHT22;23135;51.078;12.108;2024-01-25T03:05:31;7.30;99.90
37242;DHT22;23135;51.078;12.108;2024-01-25T03:07:57;7.30;99.90
37242;DHT22;23135;51.078;12.108;2024-01-25T03:10:23;7.30;99.90
37242;DHT22;23135;51.078;12.108;2024-01-25T03:12:48;7.20;99.90
37242;DHT22;23135;51.078;12.108;2024-01-25T03:15:14;7.30;99.90
37242;DHT22;23135;51.078;12.108;2024-01-25T03:17:40;7.20;99.90
37242;DHT22;23135;51.078;12.108;2024-01-25T03:20:06;7.20;99.90
37242;DHT22;23135;51.078;12.108;2024-01-25T03:22:32;7.20;99.90
37242;DHT22;23135;51.078;12.108;2024-01-25T03:24:58;7.20;99.90
37242;DHT22;23135;51.078;12.108;2024-01-25T03:27:23;7.20;99.90
37242;DHT22;23135;51.078;12.108;2024-01-25T03:29:49;7.20;99.90
37242;DHT22;23135;51.078;12.108;2024-01-25T03:32:14;7.10;99.90
37242;DHT22;23135;51.078;12.108;2024-01-25T03:34:40;7.00;99.90
37242;DHT22;23135;51.078;12.108;2024-01-25T03:37:05;7.00;99.90
37242;DHT22;23135;51.078;12.108;2024-01-25T03:39:31;7.00;99.90
37242;DHT22;23135;51.078;12.108;2024-01-25T03:41:56;7.00;99.90
37242;DHT22;23135;51.078;12.108;2024-01-25T03:44:22;7.00;99.90
37242;DHT22;23135;51.078;12.108;2024-01-25T03:46:47;7.00;99.90
37242;DHT22;23135;51.078;12.108;2024-01-25T03:49:13;6.90;99.90
37242;DHT22;23135;51.078;12.108;2024-01-25T03:51:39;6.90;99.90
37242;DHT22;23135;51.078;12.108;2024-01-25T03:54:04;6.90;99.90
37242;DHT22;23135;51.078;12.108;2024-01-25T03:56:30;6.90;99.90
37242;DHT22;23135;51.078;12.108;2024-01-25T03:58:55;6.80;99.90
37242;DHT22;23135;51.078;12.108;2024-01-25T04:01:21;6.80;99.90
37242;DHT22;23135;51.078;12.108;2024-01-25T04:03:46;6.80;99.90
37242;DHT22;23135;51.078;12.108;2024-01-25T04:06:12;6.80;99.90
37242;DHT22;23135;51.078;12.108;2024-01-25T04:08:37;6.70;99.90
37242;DHT22;23135;51.078;12.108;2024-01-25T04:11:03;6.60;99.90
37242;DHT22;23135;51.078;12.108;2024-01-25T04:13:29;6.70;99.90
37242;DHT22;23135;51.078;12.108;2024-01-25T04:15:54;6.60;99.90
37242;DHT22;23135;51.078;12.108;2024-01-25T04:18:20;6.60;99.90
37242;DHT22;23135;51.078;12.108;2024-01-25T04:20:45;6.60;99.90
37242;DHT22;23135;51.078;12.108;2024-01-25T04:23:12;6.60;99.90
37242;DHT22;23135;51.078;12.108;2024-01-25T04:25:37;6.60;99.90
37242;DHT22;23135;51.078;12.108;2024-01-25T04:28:03;6.60;99.90
37242;DHT22;23135;51.078;12.108;2024-01-25T04:30:29;6.50;99.90
37242;DHT22;23135;51.078;12.108;2024-01-25T04:32:56;6.50;99.90
37242;DHT22;23135;51.078;12.108;2024-01-25T04:35:21;6.40;99.90
37242;DHT22;23135;51.078;12.108;2024-01-25T04:37:47;6.40;99.90
37242;DHT22;23135;51.078;12.108;2024-01-25T04:40:12;6.40;99.90
37242;DHT22;23135;51.078;12.108;2024-01-25T04:42:38;6.40;99.90
37242;DHT22;23135;51.078;12.108;2024-01-25T04:45:04;6.40;99.90
37242;DHT22;23135;51.078;12.108;2024-01-25T04:47:30;6.50;99.90
37242;DHT22;23135;51.078;12.108;2024-01-25T04:49:56;6.50;99.90
37242;DHT22;23135;51.078;12.108;2024-01-25T04:52:21;6.50;99.90
37242;DHT22;23135;51.078;12.108;2024-01-25T04:54:47;6.50;99.90
37242;DHT22;23135;51.078;12.108;2024-01-25T04:57:12;6.40;99.90
37242;DHT22;23135;51.078;12.108;2024-01-25T04:59:38;6.50;99.90
37242;DHT22;23135;51.078;12.108;2024-01-25T05:02:04;6.50;99.90
37242;DHT22;23135;51.078;12.108;2024-01-25T05:04:29;6.60;99.90
37242;DHT22;23135;51.078;12.108;2024-01-25T05:06:57;6.50;99.90
37242;DHT22;23135;51.078;12.108;2024-01-25T05:09:22;6.50;99.90
37242;DHT22;23135;51.078;12.108;2024-01-25T05:11:48;6.60;99.90
37242;DHT22;23135;51.078;12.108;2024-01-25T05:14:13;6.60;99.90
37242;DHT22;23135;51.078;12.108;2024-01-25T05:16:39;6.60;99.90
37242;DHT22;23135;51.078;12.108;2024-01-25T05:19:05;6.60;99.90
37242;DHT22;23135;51.078;12.108;2024-01-25T05:21:30;6.60;99.90
37242;DHT22;23135;51.078;12.108;2024-01-25T05:23:56;6.60;99.90
37242;DHT22;23135;51.078;12.108;2024-01-25T05:26:22;6.60;99.90
37242;DHT22;23135;51.078;12.108;2024-01-25T05:28:47;6.60;99.90
37242;DHT22;23135;51.078;12.108;2024-01-25T05:31:13;6.70;99.90
37242;DHT22;23135;51.078;12.108;2024-01-25T05:33:42;6.70;99.90
37242;DHT22;23135;51.078;12.108;2024-01-25T05:36:08;6.70;99.90
37242;DHT22;23135;51.078;12.108;2024-01-25T05:38:34;6.70;99.90
37242;DHT22;23135;51.078;12.108;2024-01-25T05:40:59;6.70;99.90
37242;DHT22;23135;51.078;12.108;2024-01-25T05:43:25;6.70;99.90
37242;DHT22;23135;51.078;12.108;2024-01-25T05:45:51;6.60;99.90
37242;DHT22;23135;51.078;12.108;2024-01-25T05:48:16;6.70;99.90
37242;DHT22;23135;51.078;12.108;2024-01-25T05:50:42;6.80;99.90
37242;DHT22;23135;51.078;12.108;2024-01-25T05:53:07;6.70;99.90
37242;DHT22;23135;51.078;12.108;2024-01-25T05:55:33;6.70;99.90
37242;DHT22;23135;51.078;12.108;2024-01-25T05:57:58;6.80;99.90
37242;DHT22;23135;51.078;12.108;2024-01-25T06:00:24;6.70;99.90
37242;DHT22;23135;51.078;12.108;2024-01-25T06:02:50;6.70;99.90
37242;DHT22;23135;51.078;12.108;2024-01-25T06:05:15;6.70;99.90
37242;DHT22;23135;51.078;12.108;2024-01-25T06:07:41;6.70;99.90
37242;DHT22;23135;51.078;12.108;2024-01-25T06:10:07;6.70;99.90
37242;DHT22;23135;51.078;12.108;2024-01-25T06:12:33;6.70;99.90
37242;DHT22;23135;51.078;12.108;2024-01-25T06:14:58;6.60;99.90
37242;DHT22;23135;51.078;12.108;2024-01-25T06:17:24;6.60;99.90
37242;DHT22;23135;51.078;12.108;2024-01-25T06:19:49;6.70;99.90
37242;DHT22;23135;51.078;12.108;2024-01-25T06:22:15;6.60;99.90
37242;DHT22;23135;51.078;12.108;2024-01-25T06:24:42;6.60;99.90
37242;DHT22;23135;51.078;12.108;2024-01-25T06:27:09;6.70;99.90
37242;DHT22;23135;51.078;12.108;2024-01-25T06:29:35;6.60;99.90
37242;DHT22;23135;51.078;12.108;2024-01-25T06:32:00;6.60;99.90
37242;DHT22;23135;51.078;12.108;2024-01-25T06:34:26;6.60;99.90
37242;DHT22;23135;51.078;12.108;2024-01-25T06:36:51;6.60;99.90
37242;DHT22;23135;51.078;12.108;2024-01-25T06:39:17;6.60;99.90
37242;DHT22;23135;51.078;12.108;2024-01-25T06:41:43;6.60;99.90
37242;DHT22;23135;51.078;12.108;2024-01-25T06:44:08;6.60;99.90
37242;DHT22;23135;51.078;12.108;2024-01-25T06:46:34;6.60;99.90
37242;DHT22;23135;51.078;12.108;2024-01-25T06:49:00;6.60;99.90
37242;DHT22;23135;51.078;12.108;2024-01-25T06:51:26;6.60;99.90
37242;DHT22;23135;51.078;12.108;2024-01-25T06:53:51;6.60;99.90
37242;DHT22;23135;51.078;12.108;2024-01-25T06:56:17;6.60;99.90
37242;DHT22;23135;51.078;12.108;2024-01-25T06:58:42;6.60;99.90
37242;DHT22;23135;51.078;12.108;2024-01-25T07:01:08;6.60;99.90
37242;DHT22;23135;51.078;12.108;2024-01-25T07:03:33;6.60;99.90
37242;DHT22;23135;51.078;12.108;2024-01-25T07:05:59;6.60;99.90
37242;DHT22;23135;51.078;12.108;2024-01-25T07:08:24;6.60;99.90
37242;DHT22;23135;51.078;12.108;2024-01-25T07:10:50;6.60;99.90
37242;DHT22;23135;51.078;12.108;2024-01-25T07:13:16;6.60;99.90
37242;DHT22;23135;51.078;12.108;2024-01-25T07:15:41;6.60;99.90
37242;DHT22;23135;51.078;12.108;2024-01-25T07:18:07;6.60;99.90
37242;DHT22;23135;51.078;12.108;2024-01-25T07:20:33;6.60;99.90
37242;DHT22;23135;51.078;12.108;2024-01-25T07:22:59;6.60;99.90
37242;DHT22;23135;51.078;12.108;2024-01-25T07:25:24;6.60;99.90
37242;DHT22;23135;51.078;12.108;2024-01-25T07:27:50;6.60;99.90
37242;DHT22;23135;51.078;12.108;2024-01-25T07:30:16;6.60;99.90
37242;DHT22;23135;51.078;12.108;2024-01-25T07:32:41;6.60;99.90
37242;DHT22;23135;51.078;12.108;2024-01-25T07:35:11;6.60;99.90
37242;DHT22;23135;51.078;12.108;2024-01-25T07:37:38;6.60;99.90
37242;DHT22;23135;51.078;12.108;2024-01-25T07:40:04;6.60;99.90
37242;DHT22;23135;51.078;12.108;2024-01-25T07:42:29;6.70;99.90
37242;DHT22;23135;51.078;12.108;2024-01-25T07:44:55;6.70;99.90
37242;DHT22;23135;51.078;12.108;2024-01-25T07:47:20;6.70;99.90
37242;DHT22;23135;51.078;12.108;2024-01-25T07:49:46;6.80;99.90
37242;DHT22;23135;51.078;12.108;2024-01-25T07:52:12;6.80;99.90
37242;DHT22;23135;51.078;12.108;2024-01-25T07:54:37;6.80;99.90
37242;DHT22;23135;51.078;12.108;2024-01-25T07:57:03;6.80;99.90
37242;DHT22;23135;51.078;12.108;2024-01-25T07:59:29;6.80;99.90
37242;DHT22;23135;51.078;12.108;2024-01-25T08:01:54;6.90;99.90
37242;DHT22;23135;51.078;12.108;2024-01-25T08:04:20;6.90;99.90
37242;DHT22;23135;51.078;12.108;2024-01-25T08:06:45;6.90;99.90
37242;DHT22;23135;51.078;12.108;2024-01-25T08:09:11;7.00;99.90
37242;DHT22;23135;51.078;12.108;2024-01-25T08:11:37;7.00;99.90
37242;DHT22;23135;51.078;12.108;2024-01-25T08:14:03;7.10;99.90
37242;DHT22;23135;51.078;12.108;2024-01-25T08:16:29;7.10;99.90
37242;DHT22;23135;51.078;12.108;2024-01-25T08:18:55;7.10;99.90
37242;DHT22;23135;51.078;12.108;2024-01-25T08:21:20;7.10;99.90
37242;DHT22;23135;51.078;12.108;2024-01-25T08:23:46;7.10;99.90
37242;DHT22;23135;51.078;12.108;2024-01-25T08:26:12;7.20;99.90
37242;DHT22;23135;51.078;12.108;2024-01-25T08:28:42;7.10;99.90
37242;DHT22;23135;51.078;12.108;2024-01-25T08:31:11;7.10;99.90
37242;DHT22;23135;51.078;12.108;2024-01-25T08:33:38;7.10;99.90
37242;DHT22;23135;51.078;12.108;2024-01-25T08:36:07;7.10;99.90
37242;DHT22;23135;51.078;12.108;2024-01-25T08:38:33;7.10;99.90
37242;DHT22;23135;51.078;12.108;2024-01-25T08:40:58;7.10;99.90
37242;DHT22;23135;51.078;12.108;2024-01-25T08:43:24;7.00;99.90
37242;DHT22;23135;51.078;12.108;2024-01-25T08:45:49;7.00;99.90
37242;DHT22;23135;51.078;12.108;2024-01-25T08:48:15;7.00;99.90
37242;DHT22;23135;51.078;12.108;2024-01-25T08:50:41;6.90;99.90
37242;DHT22;23135;51.078;12.108;2024-01-25T08:53:06;7.00;99.90
37242;DHT22;23135;51.078;12.108;2024-01-25T08:55:32;7.10;99.90
37242;DHT22;23135;51.078;12.108;2024-01-25T08:57:57;7.20;99.90
37242;DHT22;23135;51.078;12.108;2024-01-25T09:00:23;7.30;99.90
37242;DHT22;23135;51.078;12.108;2024-01-25T09:02:49;7.40;99.90
37242;DHT22;23135;51.078;12.108;2024-01-25T09:05:14;7.40;99.90
37242;DHT22;23135;51.078;12.108;2024-01-25T09:07:40;7.40;99.90
37242;DHT22;23135;51.078;12.108;2024-01-25T09:10:06;7.40;99.90
37242;DHT22;23135;51.078;12.108;2024-01-25T09:12:31;7.40;99.90
37242;DHT22;23135;51.078;12.108;2024-01-25T09:14:57;7.50;99.90
37242;DHT22;23135;51.078;12.108;2024-01-25T09:17:23;7.50;99.90
37242;DHT22;23135;51.078;12.108;2024-01-25T09:19:49;7.60;99.90
37242;DHT22;23135;51.078;12.108;2024-01-25T09:22:18;7.60;99.90
37242;DHT22;23135;51.078;12.108;2024-01-25T09:24:45;7.70;99.90
37242;DHT22;23135;51.078;12.108;2024-01-25T09:27:12;7.80;99.90
37242;DHT22;23135;51.078;12.108;2024-01-25T09:29:38;7.90;99.90
37242;DHT22;23135;51.078;12.108;2024-01-25T09:32:08;7.90;99.90
37242;DHT22;23135;51.078;12.108;2024-01-25T09:34:38;7.90;99.90
37242;DHT22;23135;51.078;12.108;2024-01-25T09:37:04;7.80;99.90
37242;DHT22;23135;51.078;12.108;2024-01-25T09:39:31;7.60;99.90
37242;DHT22;23135;51.078;12.108;2024-01-25T09:41:57;7.60;99.90
37242;DHT22;23135;51.078;12.108;2024-01-25T09:44:23;7.50;99.90
37242;DHT22;23135;51.078;12.108;2024-01-25T09:46:49;7.40;99.90
37242;DHT22;23135;51.078;12.108;2024-01-25T09:49:16;7.40;99.90
37242;DHT22;23135;51.078;12.108;2024-01-25T09:51:42;7.40;99.90
37242;DHT22;23135;51.078;12.108;2024-01-25T09:54:09;7.40;99.90
37242;DHT22;23135;51.078;12.108;2024-01-25T09:56:35;7.40;99.90
37242;DHT22;23135;51.078;12.108;2024-01-25T09:59:01;7.30;99.90
37242;DHT22;23135;51.078;12.108;2024-01-25T10:01:27;7.40;99.90
37242;DHT22;23135;51.078;12.108;2024-01-25T10:03:53;7.50;99.90
37242;DHT22;23135;51.078;12.108;2024-01-25T10:06:21;7.60;99.90
37242;DHT22;23135;51.078;12.108;2024-01-25T10:08:47;7.90;99.90
37242;DHT22;23135;51.078;12.108;2024-01-25T10:11:12;8.00;99.90
37242;DHT22;23135;51.078;12.108;2024-01-25T10:13:42;8.20;99.90
37242;DHT22;23135;51.078;12.108;2024-01-25T10:16:15;8.30;99.90
37242;DHT22;23135;51.078;12.108;2024-01-25T10:18:42;8.40;99.90
37242;DHT22;23135;51.078;12.108;2024-01-25T10:21:12;8.50;99.90
37242;DHT22;23135;51.078;12.108;2024-01-25T10:23:39;8.40;99.90
37242;DHT22;23135;51.078;12.108;2024-01-25T10:26:05;8.40;99.90
37242;DHT22;23135;51.078;12.108;2024-01-25T10:28:30;8.30;99.90
37242;DHT22;23135;51.078;12.108;2024-01-25T10:30:57;8.30;99.90
37242;DHT22;23135;51.078;12.108;2024-01-25T10:33:25;8.30;99.90
37242;DHT22;23135;51.078;12.108;2024-01-25T10:35:53;8.40;99.90
37242;DHT22;23135;51.078;12.108;2024-01-25T10:38:21;8.40;99.90
37242;DHT22;23135;51.078;12.108;2024-01-25T10:40:47;8.50;99.90
37242;DHT22;23135;51.078;12.108;2024-01-25T10:43:13;8.40;99.90
37242;DHT22;23135;51.078;12.108;2024-01-25T10:45:39;8.50;99.90
37242;DHT22;23135;51.078;12.108;2024-01-25T10:48:05;8.60;99.90
37242;DHT22;23135;51.078;12.108;2024-01-25T10:50:32;8.70;99.90
37242;DHT22;23135;51.078;12.108;2024-01-25T10:52:58;8.70;99.90
37242;DHT22;23135;51.078;12.108;2024-01-25T10:55:24;8.70;99.90
37242;DHT22;23135;51.078;12.108;2024-01-25T10:57:52;8.60;99.90
37242;DHT22;23135;51.078;12.108;2024-01-25T11:00:18;8.60;99.90
37242;DHT22;23135;51.078;12.108;2024-01-25T11:02:45;8.70;99.90
37242;DHT22;23135;51.078;12.108;2024-01-25T11:05:16;8.70;99.90
37242;DHT22;23135;51.078;12.108;2024-01-25T11:07:47;8.70;99.90
37242;DHT22;23135;51.078;12.108;2024-01-25T11:10:21;8.80;99.90
37242;DHT22;23135;51.078;12.108;2024-01-25T11:12:51;8.70;99.90
37242;DHT22;23135;51.078;12.108;2024-01-25T11:15:43;8.70;99.90
37242;DHT22;23135;51.078;12.108;2024-01-25T11:18:09;8.70;99.90
37242;DHT22;23135;51.078;12.108;2024-01-25T11:20:36;8.50;99.90
37242;DHT22;23135;51.078;12.108;2024-01-25T11:23:06;8.30;99.90
37242;DHT22;23135;51.078;12.108;2024-01-25T11:25:35;8.30;99.90
37242;DHT22;23135;51.078;12.108;2024-01-25T11:28:02;8.30;99.90
37242;DHT22;23135;51.078;12.108;2024-01-25T11:30:31;8.30;99.90
37242;DHT22;23135;51.078;12.108;2024-01-25T11:32:57;8.40;99.90
37242;DHT22;23135;51.078;12.108;2024-01-25T11:35:23;8.40;99.90
37242;DHT22;23135;51.078;12.108;2024-01-25T11:37:49;8.30;99.90
37242;DHT22;23135;51.078;12.108;2024-01-25T11:40:17;8.20;99.90
37242;DHT22;23135;51.078;12.108;2024-01-25T11:42:44;8.40;99.90
37242;DHT22;23135;51.078;12.108;2024-01-25T11:45:11;8.60;99.90
37242;DHT22;23135;51.078;12.108;2024-01-25T11:47:37;8.60;99.90
37242;DHT22;23135;51.078;12.108;2024-01-25T11:50:05;8.50;99.90
37242;DHT22;23135;51.078;12.108;2024-01-25T11:52:31;8.70;99.90
37242;DHT22;23135;51.078;12.108;2024-01-25T11:55:07;8.80;99.90
37242;DHT22;23135;51.078;12.108;2024-01-25T11:57:38;9.00;99.90
37242;DHT22;23135;51.078;12.108;2024-01-25T12:00:08;9.00;99.90
37242;DHT22;23135;51.078;12.108;2024-01-25T12:02:36;9.00;99.90
37242;DHT22;23135;51.078;12.108;2024-01-25T12:05:03;8.90;99.90
37242;DHT22;23135;51.078;12.108;2024-01-25T12:07:33;8.90;99.90
37242;DHT22;23135;51.078;12.108;2024-01-25T12:10:01;8.90;99.90
37242;DHT22;23135;51.078;12.108;2024-01-25T12:12:27;8.70;99.90
37242;DHT22;23135;51.078;12.108;2024-01-25T12:15:00;8.70;99.90
37242;DHT22;23135;51.078;12.108;2024-01-25T12:17:27;8.80;99.90
37242;DHT22;23135;51.078;12.108;2024-01-25T12:19:57;8.80;99.90
37242;DHT22;23135;51.078;12.108;2024-01-25T12:22:26;8.90;99.90
37242;DHT22;23135;51.078;12.108;2024-01-25T12:24:58;8.80;99.90
37242;DHT22;23135;51.078;12.108;2024-01-25T12:27:25;8.90;99.90
37242;DHT22;23135;51.078;12.108;2024-01-25T12:29:52;8.90;99.90
37242;DHT22;23135;51.078;12.108;2024-01-25T12:32:21;8.80;99.90
37242;DHT22;23135;51.078;12.108;2024-01-25T12:34:57;8.60;99.90
37242;DHT22;23135;51.078;12.108;2024-01-25T12:37:23;8.50;99.90
37242;DHT22;23135;51.078;12.108;2024-01-25T12:39:51;8.30;99.90
37242;DHT22;23135;51.078;12.108;2024-01-25T12:42:18;8.30;99.90
37242;DHT22;23135;51.078;12.108;2024-01-25T12:44:44;8.30;99.90
37242;DHT22;23135;51.078;12.108;2024-01-25T12:47:11;8.30;99.90
37242;DHT22;23135;51.078;12.108;2024-01-25T12:49:42;8.30;99.90
37242;DHT22;23135;51.078;12.108;2024-01-25T12:52:09;8.30;99.90
37242;DHT22;23135;51.078;12.108;2024-01-25T12:54:36;8.40;99.90
37242;DHT22;23135;51.078;12.108;2024-01-25T12:57:01;8.70;99.90
37242;DHT22;23135;51.078;12.108;2024-01-25T12:59:27;8.90;99.90
37242;DHT22;23135;51.078;12.108;2024-01-25T13:01:53;9.20;99.90
37242;DHT22;23135;51.078;12.108;2024-01-25T13:04:18;9.00;99.90
37242;DHT22;23135;51.078;12.108;2024-01-25T13:06:46;8.80;99.90
37242;DHT22;23135;51.078;12.108;2024-01-25T13:09:12;8.70;99.90
37242;DHT22;23135;51.078;12.108;2024-01-25T13:11:37;8.80;99.90
37242;DHT22;23135;51.078;12.108;2024-01-25T13:14:03;8.70;99.90
37242;DHT22;23135;51.078;12.108;2024-01-25T13:16:28;8.50;99.90
37242;DHT22;23135;51.078;12.108;2024-01-25T13:18:54;8.40;99.90
37242;DHT22;23135;51.078;12.108;2024-01-25T13:21:19;8.30;99.90
37242;DHT22;23135;51.078;12.108;2024-01-25T13:23:45;8.30;99.90
37242;DHT22;23135;51.078;12.108;2024-01-25T13:26:11;8.40;99.90
37242;DHT22;23135;51.078;12.108;2024-01-25T13:28:36;8.30;99.90
37242;DHT22;23135;51.078;12.108;2024-01-25T13:31:02;8.30;99.90
37242;DHT22;23135;51.078;12.108;2024-01-25T13:33:28;8.20;99.90
37242;DHT22;23135;51.078;12.108;2024-01-25T13:35:53;8.00;99.90
37242;DHT22;23135;51.078;12.108;2024-01-25T13:38:19;8.00;99.90
37242;DHT22;23135;51.078;12.108;2024-01-25T13:40:44;7.90;99.90
37242;DHT22;23135;51.078;12.108;2024-01-25T13:43:11;7.80;99.90
37242;DHT22;23135;51.078;12.108;2024-01-25T13:45:36;7.80;99.90
37242;DHT22;23135;51.078;12.108;2024-01-25T13:48:02;7.80;99.90
37242;DHT22;23135;51.078;12.108;2024-01-25T13:50:28;7.70;99.90
37242;DHT22;23135;51.078;12.108;2024-01-25T13:52:53;7.80;99.90
37242;DHT22;23135;51.078;12.108;2024-01-25T13:55:19;7.70;99.90
37242;DHT22;23135;51.078;12.108;2024-01-25T13:57:44;7.70;99.90
37242;DHT22;23135;51.078;12.108;2024-01-25T14:00:10;7.70;99.90
37242;DHT22;23135;51.078;12.108;2024-01-25T14:02:36;7.70;99.90
37242;DHT22;23135;51.078;12.108;2024-01-25T14:05:02;7.80;99.90
37242;DHT22;23135;51.078;12.108;2024-01-25T14:07:27;7.70;99.90
37242;DHT22;23135;51.078;12.108;2024-01-25T14:09:53;7.70;99.90
37242;DHT22;23135;51.078;12.108;2024-01-25T14:12:19;7.70;99.90
37242;DHT22;23135;51.078;12.108;2024-01-25T14:14:45;7.60;99.90
37242;DHT22;23135;51.078;12.108;2024-01-25T14:17:10;7.50;99.90
37242;DHT22;23135;51.078;12.108;2024-01-25T14:19:36;7.50;99.90
37242;DHT22;23135;51.078;12.108;2024-01-25T14:22:01;7.50;99.90
37242;DHT22;23135;51.078;12.108;2024-01-25T14:24:27;7.50;99.90
37242;DHT22;23135;51.078;12.108;2024-01-25T14:26:52;7.60;99.90
37242;DHT22;23135;51.078;12.108;2024-01-25T14:29:18;7.70;99.90
37242;DHT22;23135;51.078;12.108;2024-01-25T14:31:44;7.70;99.90
37242;DHT22;23135;51.078;12.108;2024-01-25T14:34:09;7.60;99.90
37242;DHT22;23135;51.078;12.108;2024-01-25T14:36:35;7.60;99.90
37242;DHT22;23135;51.078;12.108;2024-01-25T14:39:02;7.50;99.90
37242;DHT22;23135;51.078;12.108;2024-01-25T14:41:31;7.50;99.90
37242;DHT22;23135;51.078;12.108;2024-01-25T14:43:59;7.50;99.90
37242;DHT22;23135;51.078;12.108;2024-01-25T14:46:25;7.40;99.90
37242;DHT22;23135;51.078;12.108;2024-01-25T14:48:50;7.50;99.90
37242;DHT22;23135;51.078;12.108;2024-01-25T14:51:16;7.50;99.90
37242;DHT22;23135;51.078;12.108;2024-01-25T14:53:41;7.50;99.90
37242;DHT22;23135;51.078;12.108;2024-01-25T14:56:07;7.40;99.90
37242;DHT22;23135;51.078;12.108;2024-01-25T14:58:34;7.40;99.90
37242;DHT22;23135;51.078;12.108;2024-01-25T15:00:59;7.40;99.90
37242;DHT22;23135;51.078;12.108;2024-01-25T15:03:25;7.30;99.90
37242;DHT22;23135;51.078;12.108;2024-01-25T15:05:51;7.30;99.90
37242;DHT22;23135;51.078;12.108;2024-01-25T15:08:16;7.30;99.90
37242;DHT22;23135;51.078;12.108;2024-01-25T15:10:42;7.20;99.90
37242;DHT22;23135;51.078;12.108;2024-01-25T15:13:07;7.20;99.90
37242;DHT22;23135;51.078;12.108;2024-01-25T15:15:33;7.20;99.90
37242;DHT22;23135;51.078;12.108;2024-01-25T15:17:59;7.10;99.90
37242;DHT22;23135;51.078;12.108;2024-01-25T15:20:25;7.10;99.90
37242;DHT22;23135;51.078;12.108;2024-01-25T15:22:51;7.10;99.90